createdAt,value
2019-04-21T00:02:03.761Z,14.80
2019-04-21T00:04:48.151Z,12.57
2019-04-21T00:07:36.708Z,14.73
2019-04-21T00:12:22.026Z,11.33
2019-04-21T00:14:46.077Z,12.73
2019-04-21T00:17:12.379Z,13.23
2019-04-21T00:20:09.109Z,13.87
2019-04-21T00:22:42.154Z,14.80
2019-04-21T00:25:13.912Z,11.43
2019-04-21T00:27:47.041Z,14.73
2019-04-21T00:30:21.361Z,11.50
2019-04-21T00:32:41.870Z,13.87
2019-04-21T00:35:06.420Z,13.10
2019-04-21T00:37:53.457Z,11.50
2019-04-21T00:40:22.019Z,13.70
2019-04-21T00:42:51.126Z,13.10
2019-04-21T00:45:18.198Z,15.27
2019-04-21T00:47:58.719Z,15.37
2019-04-21T00:50:34.076Z,12.93
2019-04-21T00:53:19.731Z,18.90
2019-04-21T00:56:03.321Z,16.40
2019-04-21T00:58:26.961Z,16.07
2019-04-21T01:00:46.499Z,19.93
2019-04-21T01:03:23.104Z,12.87
2019-04-21T01:05:51.811Z,17.10
2019-04-21T01:08:21.710Z,14.00
2019-04-21T01:10:43.338Z,14.13
2019-04-21T01:13:23.475Z,13.77
2019-04-21T01:15:57.260Z,16.27
2019-04-21T01:18:20.514Z,14.37
2019-04-21T01:20:32.130Z,12.90
2019-04-21T01:23:02.207Z,12.27
2019-04-21T01:25:40.435Z,13.17
2019-04-21T01:28:18.925Z,15.73
2019-04-21T01:30:55.361Z,15.33
2019-04-21T01:33:27.801Z,11.33
2019-04-21T01:35:54.911Z,13.17
2019-04-21T01:38:31.638Z,11.73
2019-04-21T01:41:00.607Z,11.03
2019-04-21T01:43:27.546Z,12.33
2019-04-21T01:45:53.537Z,15.17
2019-04-21T01:48:28.963Z,11.30
2019-04-21T01:50:55.792Z,11.77
2019-04-21T01:53:48.614Z,14.80
2019-04-21T01:56:43.170Z,14.13
2019-04-21T01:59:00.863Z,13.03
2019-04-21T02:01:39.234Z,12.83
2019-04-21T02:04:13.808Z,12.90
2019-04-21T02:06:49.056Z,13.40
2019-04-21T02:09:13.056Z,11.83
2019-04-21T02:11:50.926Z,12.93
2019-04-21T02:14:19.601Z,11.80
2019-04-21T02:16:48.166Z,14.90
2019-04-21T02:19:15.353Z,11.20
2019-04-21T02:21:38.275Z,13.03
2019-04-21T02:24:31.580Z,13.23
2019-04-21T02:26:47.708Z,13.97
2019-04-21T02:29:22.973Z,11.60
2019-04-21T02:32:01.890Z,10.97
2019-04-21T02:34:32.210Z,14.63
2019-04-21T02:37:21.408Z,11.50
2019-04-21T02:42:03.355Z,11.77
2019-04-21T02:46:58.748Z,10.73
2019-04-21T02:49:50.300Z,9.87
2019-04-21T02:52:14.235Z,11.10
2019-04-21T02:59:50.001Z,13.53
2019-04-21T03:05:21.162Z,12.33
2019-04-21T03:07:52.287Z,12.67
2019-04-21T03:12:41.470Z,10.50
2019-04-21T03:15:22.059Z,11.63
2019-04-21T03:17:49.947Z,11.13
2019-04-21T03:20:17.006Z,10.57
2019-04-21T03:25:33.093Z,11.50
2019-04-21T03:30:38.687Z,14.27
2019-04-21T03:33:32.508Z,12.70
2019-04-21T03:42:57.791Z,14.50
2019-04-21T03:45:58.837Z,11.93
2019-04-21T03:47:53.457Z,12.23
2019-04-21T03:50:29.697Z,20.40
2019-04-21T03:53:16.882Z,14.93
2019-04-21T03:55:51.002Z,14.50
2019-04-21T04:01:04.114Z,11.67
2019-04-21T04:06:55.578Z,13.67
2019-04-21T04:09:25.735Z,10.40
2019-04-21T04:11:53.055Z,23.13
2019-04-21T04:19:40.309Z,12.60
2019-04-21T04:26:55.213Z,12.30
2019-04-21T04:29:24.148Z,22.20
2019-04-21T04:32:14.514Z,14.03
2019-04-21T04:34:48.492Z,17.10
2019-04-21T04:37:23.980Z,17.00
2019-04-21T04:42:26.776Z,12.47
2019-04-21T04:47:16.678Z,13.77
2019-04-21T04:54:52.910Z,13.90
2019-04-21T04:59:47.852Z,13.27
2019-04-21T05:05:05.893Z,12.57
2019-04-21T05:07:27.432Z,14.17
2019-04-21T05:09:52.313Z,15.33
2019-04-21T05:12:25.185Z,18.43
2019-04-21T05:14:51.868Z,15.60
2019-04-21T05:17:30.916Z,13.43
2019-04-21T05:22:25.505Z,11.47
2019-04-21T05:24:44.073Z,11.77
2019-04-21T05:27:36.516Z,13.23
2019-04-21T05:30:17.386Z,13.57
2019-04-21T05:33:07.094Z,12.97
2019-04-21T05:35:56.268Z,13.63
2019-04-21T05:38:34.718Z,12.10
2019-04-21T05:40:57.626Z,15.60
2019-04-21T05:43:39.082Z,12.90
2019-04-21T05:46:04.697Z,14.43
2019-04-21T05:48:39.675Z,13.07
2019-04-21T05:51:08.924Z,12.97
2019-04-21T05:53:42.591Z,14.73
2019-04-21T05:56:20.706Z,14.47
2019-04-21T05:58:43.973Z,13.10
2019-04-21T06:01:30.162Z,16.23
2019-04-21T06:03:51.592Z,14.13
2019-04-21T06:06:20.449Z,13.40
2019-04-21T06:08:49.896Z,14.33
2019-04-21T06:13:55.589Z,12.40
2019-04-21T06:16:43.017Z,14.70
2019-04-21T06:19:00.486Z,13.50
2019-04-21T06:21:25.163Z,12.87
2019-04-21T06:23:49.598Z,12.43
2019-04-21T06:29:13.343Z,12.20
2019-04-21T06:31:58.124Z,12.17
2019-04-21T06:34:00.209Z,13.00
2019-04-21T06:39:22.633Z,13.20
2019-04-21T06:41:49.131Z,11.87
2019-04-21T06:44:22.728Z,11.33
2019-04-21T06:47:03.737Z,14.27
2019-04-21T06:49:19.064Z,13.80
2019-04-21T06:51:48.273Z,13.20
2019-04-21T06:54:57.043Z,15.30
2019-04-21T06:56:54.317Z,14.83
2019-04-21T06:59:28.091Z,17.03
2019-04-21T07:01:59.829Z,11.90
2019-04-21T07:04:31.785Z,11.97
2019-04-21T07:07:00.477Z,14.07
2019-04-21T07:09:31.243Z,15.10
2019-04-21T07:12:02.270Z,10.38
2019-04-21T07:17:08.015Z,12.23
2019-04-21T07:19:34.961Z,13.40
2019-04-21T07:22:03.309Z,13.65
2019-04-21T07:24:36.777Z,15.32
2019-04-21T07:27:10.210Z,11.70
2019-04-21T07:29:39.866Z,12.85
2019-04-21T07:32:12.710Z,12.82
2019-04-21T07:34:37.975Z,11.90
2019-04-21T07:37:06.012Z,15.10
2019-04-21T07:39:33.962Z,11.95
2019-04-21T07:42:04.598Z,12.45
2019-04-21T07:44:35.075Z,12.13
2019-04-21T07:47:11.566Z,11.88
2019-04-21T07:50:14.946Z,13.48
2019-04-21T07:53:08.491Z,10.35
2019-04-21T07:58:02.839Z,10.45
2019-04-21T08:00:47.916Z,9.38
2019-04-21T08:03:07.970Z,11.18
2019-04-21T08:05:39.989Z,13.65
2019-04-21T08:08:08.164Z,12.82
2019-04-21T08:10:38.046Z,11.45
2019-04-21T08:13:09.824Z,11.30
2019-04-21T08:18:16.660Z,10.13
2019-04-21T08:20:46.296Z,10.60
2019-04-21T08:23:13.519Z,9.23
2019-04-21T08:25:53.330Z,12.55
2019-04-21T08:28:11.849Z,9.43
2019-04-21T08:30:43.044Z,10.95
2019-04-21T08:33:24.992Z,11.90
2019-04-21T08:38:20.801Z,10.38
2019-04-21T08:40:57.361Z,11.38
2019-04-21T08:43:27.543Z,10.70
2019-04-21T08:46:05.395Z,9.98
2019-04-21T08:48:23.959Z,10.05
2019-04-21T08:50:53.953Z,12.05
2019-04-21T08:53:26.811Z,8.78
2019-04-21T08:59:05.454Z,10.35
2019-04-21T09:01:43.435Z,8.68
2019-04-21T09:04:13.287Z,11.45
2019-04-21T09:07:00.971Z,9.80
2019-04-21T09:09:16.813Z,8.28
2019-04-21T09:11:42.302Z,15.18
2019-04-21T09:16:44.395Z,8.45
2019-04-21T09:19:22.463Z,9.08
2019-04-21T09:21:52.553Z,10.25
2019-04-21T09:24:17.289Z,12.90
2019-04-21T09:26:46.480Z,8.68
2019-04-21T09:29:10.874Z,9.25
2019-04-21T09:31:36.510Z,7.45
2019-04-21T09:34:04.769Z,8.73
2019-04-21T09:36:38.922Z,11.18
2019-04-21T09:39:12.970Z,9.30
2019-04-21T09:41:39.513Z,7.12
2019-04-21T09:44:17.283Z,10.82
2019-04-21T09:46:46.581Z,7.37
2019-04-21T09:49:13.909Z,7.90
2019-04-21T09:51:41.706Z,7.22
2019-04-21T09:54:18.975Z,7.83
2019-04-21T09:56:52.381Z,8.63
2019-04-21T09:59:20.748Z,9.75
2019-04-21T10:01:55.960Z,8.18
2019-04-21T10:04:14.303Z,7.65
2019-04-21T10:06:43.571Z,7.42
2019-04-21T10:09:14.870Z,14.20
2019-04-21T10:11:43.816Z,8.55
2019-04-21T10:14:13.802Z,7.05
2019-04-21T10:17:05.366Z,7.90
2019-04-21T10:19:34.354Z,7.10
2019-04-21T10:22:05.551Z,9.25
2019-04-21T10:24:34.157Z,11.55
2019-04-21T10:27:05.301Z,7.15
2019-04-21T10:29:36.775Z,6.92
2019-04-21T10:32:05.834Z,7.15
2019-04-21T10:34:34.926Z,7.47
2019-04-21T10:37:04.886Z,10.13
2019-04-21T10:39:33.972Z,7.45
2019-04-21T10:42:03.587Z,7.45
2019-04-21T10:44:32.777Z,7.83
2019-04-21T10:47:02.641Z,7.67
2019-04-21T10:49:32.729Z,6.72
2019-04-21T10:52:05.319Z,7.55
2019-04-21T10:54:49.173Z,7.05
2019-04-21T10:57:10.467Z,9.00
2019-04-21T10:59:47.117Z,8.15
2019-04-21T11:02:16.982Z,7.60
2019-04-21T11:04:46.972Z,6.95
2019-04-21T11:07:45.398Z,6.30
2019-04-21T11:10:05.250Z,6.90
2019-04-21T11:12:36.501Z,6.28
2019-04-21T11:15:07.024Z,6.62
2019-04-21T11:17:36.896Z,8.40
2019-04-21T11:20:06.690Z,7.50
2019-04-21T11:22:36.990Z,6.45
2019-04-21T11:25:07.006Z,5.45
2019-04-21T11:27:37.298Z,7.67
2019-04-21T11:30:07.499Z,6.28
2019-04-21T11:32:37.130Z,7.47
2019-04-21T11:35:07.349Z,7.28
2019-04-21T11:37:37.782Z,9.20
2019-04-21T11:40:12.260Z,5.53
2019-04-21T11:42:40.221Z,7.08
2019-04-21T11:45:10.524Z,7.53
2019-04-21T11:47:43.702Z,10.78
2019-04-21T11:50:12.995Z,9.53
2019-04-21T11:52:43.198Z,5.50
2019-04-21T11:55:12.910Z,8.80
2019-04-21T11:57:46.909Z,6.90
2019-04-21T12:00:15.773Z,4.78
2019-04-21T12:02:45.708Z,9.13
2019-04-21T12:05:15.154Z,4.97
2019-04-21T12:07:45.140Z,5.33
2019-04-21T12:10:15.414Z,6.70
2019-04-21T12:12:45.410Z,5.42
2019-04-21T12:15:14.787Z,5.22
2019-04-21T12:17:44.031Z,7.00
2019-04-21T12:20:14.712Z,5.37
2019-04-21T12:22:45.232Z,5.45
2019-04-21T12:25:15.738Z,6.75
2019-04-21T12:27:45.721Z,5.20
2019-04-21T12:30:15.743Z,5.90
2019-04-21T12:32:52.218Z,6.05
2019-04-21T12:35:21.859Z,6.40
2019-04-21T12:37:51.175Z,5.62
2019-04-21T12:40:20.974Z,5.92
2019-04-21T12:42:50.446Z,4.92
2019-04-21T12:45:19.675Z,6.37
2019-04-21T12:47:50.651Z,6.58
2019-04-21T12:50:21.376Z,7.05
2019-04-21T12:52:51.648Z,6.72
2019-04-21T12:55:23.981Z,7.17
2019-04-21T12:57:51.316Z,5.55
2019-04-21T13:00:20.783Z,5.40
2019-04-21T13:02:49.902Z,5.50
2019-04-21T13:05:19.946Z,5.40
2019-04-21T13:07:49.333Z,5.55
2019-04-21T13:10:20.228Z,6.12
2019-04-21T13:12:50.062Z,7.87
2019-04-21T13:15:19.890Z,5.25
2019-04-21T13:17:50.145Z,6.30
2019-04-21T13:20:19.375Z,7.80
2019-04-21T13:22:48.424Z,7.87
2019-04-21T13:25:18.066Z,6.05
2019-04-21T13:27:47.278Z,4.92
2019-04-21T13:30:18.083Z,6.08
2019-04-21T13:32:47.202Z,5.50
2019-04-21T13:35:17.066Z,5.35
2019-04-21T13:37:46.082Z,7.58
2019-04-21T13:41:05.294Z,7.87
2019-04-21T13:43:21.517Z,4.87
2019-04-21T13:45:51.772Z,5.22
2019-04-21T13:48:22.402Z,5.35
2019-04-21T13:50:51.499Z,5.47
2019-04-21T13:53:20.880Z,7.83
2019-04-21T13:55:50.879Z,4.55
2019-04-21T13:58:20.115Z,4.90
2019-04-21T14:00:50.517Z,7.95
2019-04-21T14:03:22.996Z,5.05
2019-04-21T14:05:50.835Z,8.00
2019-04-21T14:08:21.049Z,6.00
2019-04-21T14:10:51.413Z,5.62
2019-04-21T14:13:20.501Z,5.22
2019-04-21T14:15:51.617Z,7.35
2019-04-21T14:18:20.709Z,5.35
2019-04-21T14:20:51.173Z,5.60
2019-04-21T14:23:28.615Z,5.92
2019-04-21T14:25:51.169Z,6.00
2019-04-21T14:28:20.334Z,8.63
2019-04-21T14:30:50.470Z,4.95
2019-04-21T14:33:20.491Z,7.00
2019-04-21T14:35:50.591Z,6.10
2019-04-21T14:38:20.582Z,14.78
2019-04-21T14:40:50.353Z,18.48
2019-04-21T14:43:20.426Z,11.05
2019-04-21T14:46:24.909Z,6.00
2019-04-21T14:49:25.182Z,6.37
2019-04-21T14:52:01.225Z,7.00
2019-04-21T14:54:56.413Z,5.78
2019-04-21T14:57:25.479Z,5.00
2019-04-21T14:59:55.142Z,4.85
2019-04-21T15:02:25.462Z,6.83
2019-04-21T15:04:55.652Z,5.10
2019-04-21T15:07:25.411Z,7.03
2019-04-21T15:10:04.665Z,6.78
2019-04-21T15:12:25.801Z,8.85
2019-04-21T15:14:56.011Z,5.75
2019-04-21T15:17:27.488Z,5.60
2019-04-21T15:19:59.779Z,10.23
2019-04-21T15:22:26.494Z,7.45
2019-04-21T15:24:56.338Z,8.08
2019-04-21T15:27:25.386Z,6.10
2019-04-21T15:29:54.323Z,6.20
2019-04-21T15:32:24.300Z,5.47
2019-04-21T15:34:54.038Z,4.85
2019-04-21T15:37:24.110Z,5.87
2019-04-21T15:39:53.194Z,5.40
2019-04-21T15:42:22.276Z,4.83
2019-04-21T15:44:52.430Z,9.75
2019-04-21T15:47:22.117Z,7.28
2019-04-21T15:50:04.737Z,13.65
2019-04-21T15:52:29.797Z,11.22
2019-04-21T15:55:10.694Z,15.90
2019-04-21T15:57:56.599Z,6.60
2019-04-21T16:00:34.196Z,9.68
2019-04-21T16:03:04.528Z,10.93
2019-04-21T16:05:34.809Z,6.47
2019-04-21T16:08:04.072Z,7.15
2019-04-21T16:10:42.862Z,6.03
2019-04-21T16:13:05.645Z,7.67
2019-04-21T16:15:34.830Z,6.20
2019-04-21T16:18:03.886Z,4.95
2019-04-21T16:20:33.224Z,5.22
2019-04-21T16:23:02.369Z,6.42
2019-04-21T16:25:32.716Z,5.25
2019-04-21T16:28:01.927Z,5.30
2019-04-21T16:30:31.050Z,6.12
2019-04-21T16:32:59.950Z,7.97
2019-04-21T16:35:29.603Z,6.97
2019-04-21T16:37:59.470Z,8.43
2019-04-21T16:40:41.533Z,5.62
2019-04-21T16:43:00.376Z,5.80
2019-04-21T16:45:30.681Z,5.03
2019-04-21T16:48:01.128Z,6.53
2019-04-21T16:50:31.545Z,4.15
2019-04-21T16:53:10.224Z,4.30
2019-04-21T16:55:48.884Z,5.72
2019-04-21T16:58:32.511Z,6.60
2019-04-21T17:01:15.747Z,3.85
2019-04-21T17:03:42.308Z,4.67
2019-04-21T17:06:11.480Z,6.33
2019-04-21T17:08:40.940Z,4.47
2019-04-21T17:11:17.289Z,5.20
2019-04-21T17:13:42.132Z,4.55
2019-04-21T17:16:40.634Z,4.67
2019-04-21T17:18:56.385Z,4.80
2019-04-21T17:21:14.741Z,4.75
2019-04-21T17:23:44.230Z,4.67
2019-04-21T17:26:13.517Z,6.70
2019-04-21T17:28:42.761Z,6.35
2019-04-21T17:31:12.845Z,5.28
2019-04-21T17:33:43.450Z,4.15
2019-04-21T17:36:12.615Z,4.53
2019-04-21T17:38:41.815Z,3.72
2019-04-21T17:41:21.829Z,8.03
2019-04-21T17:43:41.734Z,7.25
2019-04-21T17:46:13.573Z,5.20
2019-04-21T17:48:42.874Z,6.10
2019-04-21T17:51:17.651Z,6.97
2019-04-21T17:53:53.794Z,10.40
2019-04-21T17:56:51.054Z,6.85
2019-04-21T17:59:09.614Z,6.33
2019-04-21T18:01:45.070Z,8.40
2019-04-21T18:04:15.300Z,10.70
2019-04-21T18:06:55.595Z,7.25
2019-04-21T18:09:36.403Z,9.00
2019-04-21T18:12:01.442Z,7.12
2019-04-21T18:14:13.695Z,9.45
2019-04-21T18:16:46.233Z,5.97
2019-04-21T18:19:15.067Z,6.17
2019-04-21T18:22:06.909Z,9.95
2019-04-21T18:24:45.914Z,26.27
2019-04-21T18:27:08.977Z,20.23
2019-04-21T18:29:36.794Z,16.77
2019-04-21T18:32:06.293Z,13.95
2019-04-21T18:35:08.468Z,12.75
2019-04-21T18:37:52.899Z,9.10
2019-04-21T18:40:34.816Z,10.58
2019-04-21T18:43:46.808Z,9.25
2019-04-21T18:46:20.563Z,12.03
2019-04-21T18:48:52.114Z,7.37
2019-04-21T18:51:34.952Z,8.85
2019-04-21T18:54:24.221Z,10.85
2019-04-21T18:56:31.506Z,8.40
2019-04-21T18:59:00.836Z,8.85
2019-04-21T19:01:34.388Z,8.08
2019-04-21T19:04:05.402Z,8.78
2019-04-21T19:06:45.496Z,8.10
2019-04-21T19:09:26.645Z,7.90
2019-04-21T19:11:56.252Z,7.03
2019-04-21T19:14:33.383Z,8.43
2019-04-21T19:17:11.015Z,11.53
2019-04-21T19:22:04.613Z,20.20
2019-04-21T19:24:37.001Z,39.75
2019-04-21T19:27:05.171Z,24.55
2019-04-21T19:29:32.988Z,22.85
2019-04-21T19:32:11.918Z,19.62
2019-04-21T19:34:24.497Z,14.20
2019-04-21T19:36:55.808Z,19.98
2019-04-21T19:39:37.515Z,17.98
2019-04-21T19:42:00.828Z,18.07
2019-04-21T19:44:37.961Z,22.05
2019-04-21T19:47:09.271Z,22.67
2019-04-21T19:49:45.760Z,28.32
2019-04-21T19:52:03.600Z,21.82
2019-04-21T19:54:33.996Z,15.88
2019-04-21T19:56:56.553Z,14.07
2019-04-21T19:59:34.640Z,14.10
2019-04-21T20:01:58.240Z,14.38
2019-04-21T20:04:34.123Z,12.63
2019-04-21T20:07:16.825Z,14.28
2019-04-21T20:09:47.783Z,9.28
2019-04-21T20:12:19.614Z,11.38
2019-04-21T20:14:55.377Z,8.45
2019-04-21T20:17:13.748Z,8.90
2019-04-21T20:19:32.182Z,11.83
2019-04-21T20:22:01.377Z,10.93
2019-04-21T20:24:33.773Z,9.23
2019-04-21T20:27:07.645Z,10.60
2019-04-21T20:29:49.896Z,8.15
2019-04-21T20:32:26.356Z,10.68
2019-04-21T20:34:58.626Z,8.90
2019-04-21T20:37:21.206Z,8.43
2019-04-21T20:39:46.199Z,7.15
2019-04-21T20:42:22.195Z,10.15
2019-04-21T20:45:13.115Z,7.67
2019-04-21T20:47:20.047Z,11.65
2019-04-21T20:49:50.460Z,8.50
2019-04-21T20:52:30.710Z,6.65
2019-04-21T20:54:53.898Z,6.15
2019-04-21T20:57:27.305Z,6.55
2019-04-21T20:59:57.921Z,6.73
2019-04-21T21:02:26.566Z,5.80
2019-04-21T21:04:51.579Z,8.98
2019-04-21T21:07:40.013Z,8.00
2019-04-21T21:10:04.973Z,6.65
2019-04-21T21:12:37.153Z,7.83
2019-04-21T21:14:57.789Z,6.43
2019-04-21T21:17:49.995Z,6.13
2019-04-21T21:20:07.942Z,6.07
2019-04-21T21:22:37.725Z,8.15
2019-04-21T21:25:03.056Z,5.90
2019-04-21T21:27:33.730Z,6.80
2019-04-21T21:30:05.877Z,9.58
2019-04-21T21:32:37.322Z,8.83
2019-04-21T21:35:07.973Z,6.33
2019-04-21T21:37:44.001Z,5.83
2019-04-21T21:40:14.266Z,6.25
2019-04-21T21:42:28.252Z,14.00
2019-04-21T21:45:01.254Z,9.45
2019-04-21T21:47:45.179Z,10.13
2019-04-21T21:50:07.344Z,8.77
2019-04-21T21:52:39.963Z,6.87
2019-04-21T21:57:44.495Z,7.27
2019-04-21T22:00:12.320Z,6.93
2019-04-21T22:02:44.229Z,7.60
2019-04-21T22:05:16.543Z,7.37
2019-04-21T22:07:42.515Z,7.63
2019-04-21T22:10:12.519Z,7.17
2019-04-21T22:12:51.646Z,6.73
2019-04-21T22:15:18.919Z,8.53
2019-04-21T22:18:06.078Z,7.67
2019-04-21T22:20:35.018Z,11.40
2019-04-21T22:22:54.351Z,8.93
2019-04-21T22:25:22.597Z,8.23
2019-04-21T22:27:46.771Z,6.93
2019-04-21T22:30:26.079Z,7.03
2019-04-21T22:32:53.738Z,9.83
2019-04-21T22:35:28.502Z,6.50
2019-04-21T22:38:01.941Z,7.90
2019-04-21T22:40:29.140Z,8.13
2019-04-21T22:42:59.415Z,10.30
2019-04-21T22:45:21.268Z,7.53
2019-04-21T22:47:51.992Z,9.27
2019-04-21T22:50:26.683Z,10.23
2019-04-21T22:53:01.511Z,8.13
2019-04-21T22:55:29.670Z,10.93
2019-04-21T22:57:59.867Z,6.77
2019-04-21T23:00:30.158Z,9.83
2019-04-21T23:03:07.948Z,8.37
2019-04-21T23:05:36.366Z,7.23
2019-04-21T23:08:04.876Z,7.00
2019-04-21T23:10:31.814Z,7.70
2019-04-21T23:13:05.725Z,7.80
2019-04-21T23:15:38.986Z,8.63
2019-04-21T23:18:23.071Z,8.27
2019-04-21T23:20:53.558Z,7.23
2019-04-21T23:23:22.100Z,8.37
2019-04-21T23:25:47.232Z,6.80
2019-04-21T23:28:16.020Z,7.97
2019-04-21T23:30:54.510Z,10.13
2019-04-21T23:33:10.937Z,11.33
2019-04-21T23:35:41.752Z,6.83
2019-04-21T23:38:10.531Z,8.27
2019-04-21T23:40:39.806Z,8.50
2019-04-21T23:43:14.951Z,7.20
2019-04-21T23:45:44.356Z,8.23
2019-04-21T23:48:27.170Z,6.40
2019-04-21T23:50:50.684Z,6.63
2019-04-21T23:53:13.235Z,7.90
2019-04-21T23:55:43.378Z,7.60
2019-04-21T23:58:18.659Z,10.03
